• Join FlightAware (Why Join?)
  • Login
  • US Flag 
 
04:10AM EST


 

Airport Tracker/Info


-or-


 

Live Flight TrackerFlight Track Log ✈ N3663H ✈ 01-Jun-2013 ✈ KLWM - KHPN

Flight Track Log - Related Links

Times and Time Zones

All times are in EDT time to prevent confusion due to time zone crossing. See the N3663H flight status page for this flight to view local times or setup timezone preferences in your user account.

Time Position Orientation Groundspeed Altitude Reporting Facility
EDT Latitude Longitude Course Direction KTS MPH feet Rate Location/Type
03:00PM 42.7000 -71.1333 270° West 80 92 800  Level KA90
03:01PM 42.7000 -71.1500 270° West 84 97 1,300 900 Climbing KA90
03:02PM 42.6833 -71.1833 236° Southwest 91 105 2,300 840 Climbing KA90
03:03PM 42.6667 -71.2000 216° Southwest 98 113 3,200 840 Climbing KA90
03:04PM 42.6500 -71.2167 216° Southwest 79 91 4,000 720 Climbing KA90
03:05PM 42.6167 -71.2333 200° South 89 102 4,700 840 Climbing KA90
03:06PM 42.6000 -71.2667 236° Southwest 92 106 5,800 900 Climbing KA90
03:07PM 42.5833 -71.2833 216° Southwest 88 101 6,700 900 Climbing KA90
03:08PM 42.5500 -71.3000 200° South 85 98 7,700 600 Climbing KA90
03:09PM 42.5333 -71.3167 216° Southwest 124 143 8,000 120 Climbing KA90
03:10PM 42.5167 -71.3500 236° Southwest 128 147 8,000  Level KA90
03:11PM 42.4833 -71.3833 216° Southwest 132 152 8,000  Level KA90
03:12PM 42.4500 -71.4000 200° South 138 159 8,000  Level KA90
03:13PM 42.4167 -71.4333 216° Southwest 133 153 8,000  Level KA90
03:14PM 42.3833 -71.4667 216° Southwest 133 153 8,000  Level KA90
03:15PM 42.3667 -71.4833 216° Southwest 129 148 8,000  Level KA90
03:16PM 42.3342 -71.5133 214° Southwest 130 150 8,000  Level Boston Center
03:16PM 42.3092 -71.5361 214° Southwest 132 152 8,000  Level Boston Center
03:17PM 42.2803 -71.5647 216° Southwest 129 148 8,000  Level Boston Center
03:18PM 42.2578 -71.6042 232° Southwest 132 152 8,000  Level Boston Center
03:20PM 42.2350 -71.6408 230° Southwest 133 153 8,000  Level Boston Center
03:21PM 42.2125 -71.6806 233° Southwest 136 157 8,000  Level Boston Center
03:22PM 42.1856 -71.7172 225° Southwest 133 153 8,000  Level Boston Center
03:23PM 42.1608 -71.7567 230° Southwest 132 152 8,000  Level Boston Center
03:24PM 42.1361 -71.7989 232° Southwest 131 151 8,000  Level Boston Center
03:25PM 42.1111 -71.8328 225° Southwest 127 146 8,000  Level Boston Center
03:26PM 42.0864 -71.8694 228° Southwest 131 151 8,000  Level Boston Center
03:27PM 42.0617 -71.9117 232° Southwest 135 155 8,000  Level Boston Center
03:28PM 42.0389 -71.9453 228° Southwest 131 151 8,000  Level Boston Center
03:29PM 42.0161 -71.9792 228° Southwest 130 150 8,000  Level Boston Center
03:30PM 41.9892 -72.0211 229° Southwest 131 151 8,000  Level Boston Center
03:31PM 41.9664 -72.0575 230° Southwest 129 148 8,000  Level Boston Center
03:32PM 41.9433 -72.0911 227° Southwest 124 143 8,000  Level Boston Center
03:33PM 41.9122 -72.1333 225° Southwest 130 150 8,000  Level Boston Center
03:34PM 41.8811 -72.1586 211° Southwest 131 151 8,000  Level Boston Center
03:35PM 41.8519 -72.1864 215° Southwest 130 150 8,000  Level Boston Center
03:36PM 41.8186 -72.2144 212° Southwest 135 155 8,000  Level Boston Center
03:37PM 41.7897 -72.2481 221° Southwest 138 159 8,000  Level Boston Center
03:38PM 41.7606 -72.2786 218° Southwest 135 155 8,000  Level Boston Center
03:39PM 41.7314 -72.3011 210° Southwest 133 153 8,000  Level Boston Center
03:40PM 41.7022 -72.3289 215° Southwest 129 148 8,000  Level Boston Center
03:41PM 41.6731 -72.3594 218° Southwest 129 148 8,000  Level Boston Center
03:42PM 41.6439 -72.3844 213° Southwest 128 147 8,000  Level Boston Center
03:43PM 41.6106 -72.4150 214° Southwest 131 151 8,000  Level Boston Center
03:44PM 41.5856 -72.4400 217° Southwest 134 154 8,000  Level Boston Center
03:45PM 41.5333 -72.4833 212° Southwest 137 158 8,000  Level New York TRACON
03:46PM 41.5000 -72.5167 217° Southwest 137 158 8,000  Level New York TRACON
03:47PM 41.4667 -72.5500 217° Southwest 135 155 8,000  Level New York TRACON
03:48PM 41.4500 -72.5667 217° Southwest 133 153 8,000 -240 Level New York TRACON
03:49PM 41.4167 -72.6000 217° Southwest 140 161 7,600 -600 Descending New York TRACON
03:50PM 41.3833 -72.6333 217° Southwest 147 169 6,900 -720 Descending New York TRACON
03:51PM 41.3500 -72.6833 228° Southwest 149 171 6,200 -480 Descending New York TRACON
03:52PM 41.3500 -72.7333 270° West 145 167 6,000 -120 Descending New York TRACON
03:53PM 41.3500 -72.7833 270° West 131 151 6,000 -360 Level New York TRACON
03:54PM 41.3333 -72.8333 246° West 145 167 5,300 -660 Descending New York TRACON
03:55PM 41.3167 -72.8833 246° West 152 175 4,700 -660 Descending New York TRACON
03:56PM 41.3167 -72.9333 270° West 154 177 4,000 -420 Descending New York TRACON
03:57PM 41.3000 -72.9833 246° West 140 161 4,000  Level New York TRACON
03:58PM 41.3000 -73.0333 270° West 129 148 4,000  Level New York TRACON
03:59PM 41.2833 -73.0833 246° West 128 147 4,000  Level New York TRACON
04:00PM 41.2667 -73.1167 236° Southwest 125 144 4,000  Level New York TRACON
04:01PM 41.2667 -73.1667 270° West 125 144 4,000  Level New York TRACON
04:02PM 41.2500 -73.2000 236° Southwest 124 143 4,000  Level New York TRACON
04:03PM 41.2500 -73.2500 270° West 128 147 4,000  Level New York TRACON
04:04PM 41.2333 -73.3000 246° West 128 147 4,000  Level New York TRACON
04:05PM 41.2333 -73.3500 270° West 127 146 4,000  Level New York TRACON
04:06PM 41.2167 -73.3833 236° Southwest 127 146 4,000  Level New York TRACON
04:07PM 41.2167 -73.4333 270° West 124 143 4,000 -240 Level New York TRACON
04:08PM 41.2000 -73.4833 246° West 142 163 3,600 -600 Descending New York TRACON
04:09PM 41.2000 -73.5333 270° West 153 176 2,900 -660 Descending New York TRACON
04:10PM 41.1833 -73.5833 246° West 154 177 2,300 -600 Descending New York TRACON